createdAt,value
2022-10-10T04:00:36.240Z,11.46
2022-10-10T04:05:36.166Z,11.61
2022-10-10T04:10:36.114Z,11.62
2022-10-10T04:15:43.124Z,11.55
2022-10-10T04:20:36.012Z,11.54
2022-10-10T04:25:35.946Z,11.51
2022-10-10T04:30:35.898Z,11.53
2022-10-10T04:35:37.226Z,11.54
2022-10-10T04:40:35.794Z,11.51
2022-10-10T04:45:37.672Z,11.56
2022-10-10T04:50:35.688Z,11.61
2022-10-10T04:55:35.649Z,11.61
2022-10-10T05:00:35.568Z,11.64
2022-10-10T05:05:35.515Z,11.70
2022-10-10T05:10:35.470Z,11.70
2022-10-10T05:15:35.427Z,11.41
2022-10-10T05:20:35.358Z,11.35
2022-10-10T05:25:35.297Z,11.28
2022-10-10T05:30:35.324Z,11.28
2022-10-10T05:35:35.212Z,11.37
2022-10-10T05:40:35.141Z,11.45
2022-10-10T05:45:35.090Z,11.39
2022-10-10T05:50:35.033Z,11.52
2022-10-10T05:55:34.998Z,11.57
2022-10-10T06:00:34.921Z,11.67
2022-10-10T06:05:34.864Z,11.82
2022-10-10T06:10:34.818Z,11.89
2022-10-10T06:15:34.780Z,12.00
2022-10-10T06:20:34.712Z,12.21
2022-10-10T06:25:42.357Z,12.33
2022-10-10T06:30:35.600Z,12.82
2022-10-10T06:35:34.562Z,13.39
2022-10-10T06:40:34.495Z,14.33
2022-10-10T06:45:34.436Z,15.40
2022-10-10T06:50:34.398Z,16.49
2022-10-10T06:55:34.352Z,17.41
2022-10-10T07:00:34.319Z,18.19
2022-10-10T07:05:34.223Z,18.37
2022-10-10T07:10:34.170Z,18.99
2022-10-10T07:15:34.132Z,20.15
2022-10-10T07:20:34.056Z,19.06
2022-10-10T07:25:34.004Z,18.49
2022-10-10T07:30:33.948Z,18.21
2022-10-10T07:35:33.910Z,18.52
2022-10-10T07:40:33.837Z,18.25
2022-10-10T07:45:33.788Z,18.91
2022-10-10T07:50:33.726Z,19.88
2022-10-10T07:55:33.702Z,19.76
2022-10-10T08:00:33.627Z,19.73
2022-10-10T08:05:33.561Z,19.56
2022-10-10T08:10:33.504Z,18.17
2022-10-10T08:15:34.134Z,18.46
2022-10-10T08:20:33.470Z,19.58
2022-10-10T08:25:33.436Z,19.07
2022-10-10T08:30:33.276Z,18.90
2022-10-10T08:35:33.251Z,18.48
2022-10-10T08:40:33.190Z,17.62
2022-10-10T08:45:33.112Z,17.39
2022-10-10T08:50:33.069Z,17.59
2022-10-10T08:55:33.040Z,17.72
2022-10-10T09:00:33.080Z,17.81
2022-10-10T09:05:32.896Z,17.52
2022-10-10T09:10:32.854Z,17.98
2022-10-10T09:15:32.830Z,18.03
2022-10-10T09:20:32.730Z,18.21
2022-10-10T09:25:32.687Z,17.99
2022-10-10T09:30:32.648Z,18.39
2022-10-10T09:35:32.785Z,18.48
2022-10-10T09:40:32.525Z,18.65
2022-10-10T09:45:32.470Z,18.99
2022-10-10T09:50:32.400Z,19.33
2022-10-10T09:55:32.486Z,19.69
2022-10-10T10:00:32.317Z,19.68
2022-10-10T10:05:32.237Z,19.75
2022-10-10T10:10:32.196Z,20.20
2022-10-10T10:15:39.249Z,19.79
2022-10-10T10:20:32.077Z,20.13
2022-10-10T10:25:32.103Z,19.91
2022-10-10T10:30:31.980Z,19.81
2022-10-10T10:35:31.950Z,19.64
2022-10-10T10:40:31.877Z,19.75
2022-10-10T10:45:31.822Z,20.05
2022-10-10T10:50:31.766Z,19.92
2022-10-10T10:55:33.115Z,20.46
2022-10-10T11:01:24.213Z,20.99
2022-10-10T11:05:39.935Z,20.78
2022-10-10T11:10:31.554Z,20.76
2022-10-10T11:15:47.952Z,21.13
2022-10-10T11:20:32.460Z,21.26
2022-10-10T11:25:31.391Z,21.40
2022-10-10T11:30:31.330Z,21.50
2022-10-10T11:35:31.294Z,21.26
2022-10-10T11:40:31.220Z,21.14
2022-10-10T11:45:31.166Z,21.16
2022-10-10T11:50:31.105Z,21.14
2022-10-10T11:55:31.165Z,21.53
2022-10-10T12:00:30.991Z,21.40
2022-10-10T12:05:30.945Z,21.37
2022-10-10T12:10:30.869Z,21.03
2022-10-10T12:15:30.847Z,21.22
2022-10-10T12:20:30.814Z,20.98
2022-10-10T12:25:30.717Z,21.26
2022-10-10T12:30:30.655Z,21.18
2022-10-10T12:35:30.626Z,21.42
2022-10-10T12:40:30.547Z,21.48
2022-10-10T12:45:30.522Z,21.60
2022-10-10T12:50:30.435Z,21.86
2022-10-10T12:55:30.403Z,22.14
2022-10-10T13:00:30.323Z,22.31
2022-10-10T13:05:30.272Z,21.93
2022-10-10T13:10:30.211Z,22.38
2022-10-10T13:15:30.181Z,22.34
2022-10-10T13:20:30.107Z,22.29
2022-10-10T13:25:30.050Z,22.03
2022-10-10T13:30:30.007Z,21.53
2022-10-10T13:35:29.953Z,21.71
2022-10-10T13:40:29.886Z,21.78
2022-10-10T13:45:30.705Z,21.59
2022-10-10T13:50:29.759Z,21.55
2022-10-10T13:55:29.742Z,21.93
2022-10-10T14:00:29.677Z,21.93
2022-10-10T14:05:29.600Z,22.00
2022-10-10T14:10:29.562Z,21.80
2022-10-10T14:15:29.526Z,21.73
2022-10-10T14:20:29.433Z,21.44
2022-10-10T14:25:29.391Z,21.48
2022-10-10T14:30:29.348Z,21.48
2022-10-10T14:35:29.287Z,21.08
2022-10-10T14:40:29.230Z,20.92
2022-10-10T14:45:29.178Z,20.96
2022-10-10T14:50:29.124Z,20.67
2022-10-10T14:55:29.228Z,20.67
2022-10-10T15:00:29.152Z,20.34
2022-10-10T15:05:28.965Z,20.02
2022-10-10T15:10:36.146Z,19.83
2022-10-10T15:15:29.874Z,19.80
2022-10-10T15:20:28.794Z,19.82
2022-10-10T15:25:33.432Z,19.65
2022-10-10T15:30:28.688Z,19.25
2022-10-10T15:35:44.626Z,18.95
2022-10-10T15:40:29.578Z,18.72
2022-10-10T15:45:51.467Z,18.58
2022-10-10T15:50:29.464Z,18.60
2022-10-10T15:55:28.438Z,18.55
2022-10-10T16:00:28.406Z,18.45
2022-10-10T16:05:28.304Z,18.46
2022-10-10T16:10:28.246Z,18.43
2022-10-10T16:15:28.216Z,18.43
2022-10-10T16:20:35.275Z,18.36
2022-10-10T16:25:28.106Z,18.29
2022-10-10T16:30:28.034Z,18.26
2022-10-10T16:35:27.991Z,18.19
2022-10-10T16:40:27.937Z,18.23
2022-10-10T16:45:27.864Z,18.08
2022-10-10T16:50:27.813Z,18.05
2022-10-10T16:55:27.779Z,18.06
2022-10-10T17:00:27.705Z,17.88
2022-10-10T17:05:27.648Z,17.89
2022-10-10T17:10:27.602Z,17.85
2022-10-10T17:15:27.568Z,17.80
2022-10-10T17:20:27.487Z,17.75
2022-10-10T17:25:27.431Z,17.69
2022-10-10T17:30:27.377Z,17.45
2022-10-10T17:35:27.336Z,17.41
2022-10-10T17:40:27.268Z,17.34
2022-10-10T17:45:27.321Z,17.27
2022-10-10T17:50:27.161Z,17.22
2022-10-10T17:55:27.119Z,16.94
2022-10-10T18:00:27.057Z,16.80
2022-10-10T18:05:26.994Z,16.84
2022-10-10T18:10:26.944Z,16.82
2022-10-10T18:15:26.900Z,16.84
2022-10-10T18:20:26.850Z,16.78
2022-10-10T18:25:26.773Z,16.72
2022-10-10T18:30:26.718Z,16.45
2022-10-10T18:35:26.685Z,15.99
2022-10-10T18:40:26.613Z,15.66
2022-10-10T18:45:26.571Z,15.46
2022-10-10T18:50:26.500Z,15.32
2022-10-10T18:55:26.471Z,15.15
2022-10-10T19:00:26.399Z,15.09
2022-10-10T19:05:26.327Z,15.00
2022-10-10T19:10:26.274Z,14.99
2022-10-10T19:15:26.246Z,14.84
2022-10-10T19:20:29.236Z,15.01
2022-10-10T19:25:26.129Z,14.92
2022-10-10T19:30:26.054Z,14.95
2022-10-10T19:35:26.017Z,14.78
2022-10-10T19:40:25.942Z,14.78
2022-10-10T19:45:25.887Z,14.83
2022-10-10T19:50:26.021Z,14.67
2022-10-10T19:55:25.874Z,14.59
2022-10-10T20:00:25.718Z,14.48
2022-10-10T20:05:25.670Z,14.47
2022-10-10T20:10:25.609Z,14.38
2022-10-10T20:15:25.577Z,14.08
2022-10-10T20:20:25.507Z,13.98
2022-10-10T20:25:25.456Z,13.84
2022-10-10T20:30:25.392Z,13.64
2022-10-10T20:35:25.360Z,13.62
2022-10-10T20:40:25.285Z,13.48
2022-10-10T20:45:25.231Z,13.31
2022-10-10T20:50:25.177Z,13.20
2022-10-10T20:55:25.139Z,13.01
2022-10-10T21:00:25.067Z,12.81
2022-10-10T21:05:25.020Z,12.50
2022-10-10T21:10:24.960Z,12.31
2022-10-10T21:15:24.927Z,12.24
2022-10-10T21:20:24.853Z,12.01
2022-10-10T21:25:24.805Z,11.83
2022-10-10T21:30:24.746Z,11.73
2022-10-10T21:35:24.723Z,11.62
2022-10-10T21:40:24.641Z,11.51
2022-10-10T21:45:24.588Z,11.40
2022-10-10T21:50:24.532Z,11.14
2022-10-10T21:55:24.498Z,11.04
2022-10-10T22:00:24.563Z,10.95
2022-10-10T22:05:24.374Z,10.89
2022-10-10T22:10:24.316Z,10.87
2022-10-10T22:15:24.280Z,10.93
2022-10-10T22:20:31.244Z,10.99
2022-10-10T22:25:24.166Z,10.87
2022-10-10T22:30:24.103Z,10.67
2022-10-10T22:35:24.075Z,10.73
2022-10-10T22:40:23.998Z,10.43
2022-10-10T22:45:23.938Z,10.32
2022-10-10T22:50:23.886Z,10.24
2022-10-10T22:55:23.859Z,10.17
2022-10-10T23:00:23.842Z,10.36
2022-10-10T23:05:23.729Z,10.40
2022-10-10T23:10:23.668Z,10.25
2022-10-10T23:15:23.676Z,10.16
2022-10-10T23:20:23.565Z,10.11
2022-10-10T23:25:23.507Z,10.26
